createdAt,value
2022-12-23T00:00:42.872Z,3.88
2022-12-23T00:03:10.461Z,3.91
2022-12-23T00:05:39.118Z,3.99
2022-12-23T00:08:07.073Z,4.01
2022-12-23T00:10:37.940Z,4.01
2022-12-23T00:13:23.816Z,4.02
2022-12-23T00:15:51.513Z,4.04
2022-12-23T00:18:18.579Z,4.09
2022-12-23T00:20:45.719Z,4.05
2022-12-23T00:23:13.137Z,4.09
2022-12-23T00:25:44.643Z,4.15
2022-12-23T00:28:17.422Z,4.15
2022-12-23T00:30:56.151Z,4.22
2022-12-23T00:33:25.430Z,4.30
2022-12-23T00:35:53.245Z,4.35
2022-12-23T00:38:39.738Z,4.36
2022-12-23T00:41:30.042Z,4.39
2022-12-23T00:43:57.359Z,4.49
2022-12-23T00:46:25.006Z,4.44
2022-12-23T00:49:10.805Z,4.53
2022-12-23T00:51:38.366Z,4.44
2022-12-23T00:54:06.221Z,4.49
2022-12-23T00:56:33.428Z,4.45
2022-12-23T00:59:01.087Z,4.54
2022-12-23T01:01:47.069Z,4.53
2022-12-23T01:04:34.692Z,4.54
2022-12-23T01:07:02.289Z,4.53
2022-12-23T01:09:29.973Z,4.63
2022-12-23T01:11:57.197Z,4.67
2022-12-23T01:14:24.708Z,4.65
2022-12-23T01:16:52.350Z,4.73
2022-12-23T01:19:19.626Z,4.82
2022-12-23T01:21:46.839Z,4.96
2022-12-23T01:24:14.410Z,4.91
2022-12-23T01:26:41.668Z,4.89
2022-12-23T01:29:08.825Z,4.84
2022-12-23T01:31:36.435Z,4.74
2022-12-23T01:34:03.781Z,4.85
2022-12-23T01:36:30.977Z,4.79
2022-12-23T01:38:58.499Z,4.87
2022-12-23T01:41:47.287Z,4.90
2022-12-23T01:44:54.159Z,4.91
2022-12-23T01:47:40.356Z,4.92
2022-12-23T01:50:22.024Z,5.01
2022-12-23T01:53:07.404Z,5.08
2022-12-23T01:56:03.631Z,5.07
2022-12-23T01:58:35.340Z,5.11
2022-12-23T02:01:21.945Z,5.15
2022-12-23T02:03:52.786Z,5.11
2022-12-23T02:06:45.458Z,5.13
2022-12-23T02:09:17.197Z,4.97
2022-12-23T02:12:11.951Z,4.96
2022-12-23T02:15:17.175Z,4.82
2022-12-23T02:17:49.036Z,4.69
2022-12-23T02:20:25.700Z,4.51
2022-12-23T02:23:23.958Z,4.46
2022-12-23T02:26:30.053Z,4.33
2022-12-23T02:29:03.106Z,4.31
2022-12-23T02:32:02.244Z,4.19
2022-12-23T02:34:53.782Z,4.11
2022-12-23T02:37:24.007Z,4.04
2022-12-23T02:39:58.373Z,4.02
2022-12-23T02:43:04.771Z,3.93
2022-12-23T02:45:52.256Z,3.93
2022-12-23T02:48:32.348Z,3.92
2022-12-23T02:51:03.322Z,3.85
2022-12-23T02:53:37.549Z,3.82
2022-12-23T02:56:06.505Z,3.75
2022-12-23T02:58:42.487Z,3.72
2022-12-23T03:01:11.249Z,3.66
2022-12-23T03:03:40.342Z,3.69
2022-12-23T03:06:20.460Z,3.61
2022-12-23T03:08:50.636Z,3.63
2022-12-23T03:11:18.551Z,3.67
2022-12-23T03:14:07.302Z,3.55
2022-12-23T03:16:56.712Z,3.54
2022-12-23T03:19:26.779Z,3.58
2022-12-23T03:22:13.281Z,3.63
2022-12-23T03:24:40.906Z,3.70
2022-12-23T03:27:41.688Z,3.65
2022-12-23T03:30:17.174Z,3.66
2022-12-23T03:32:51.657Z,3.65
2022-12-23T03:35:19.958Z,3.48
2022-12-23T03:37:50.339Z,3.30
2022-12-23T03:40:25.001Z,3.50
2022-12-23T03:42:59.737Z,3.61
2022-12-23T03:45:39.894Z,3.61
2022-12-23T03:48:24.649Z,3.65
2022-12-23T03:50:56.957Z,3.65
2022-12-23T03:53:31.082Z,3.58
2022-12-23T03:56:06.054Z,3.58
2022-12-23T03:58:35.170Z,3.10
2022-12-23T04:01:38.809Z,3.04
2022-12-23T04:04:44.233Z,3.20
2022-12-23T04:07:17.734Z,3.15
2022-12-23T04:09:45.314Z,3.23
2022-12-23T04:12:14.333Z,3.27
2022-12-23T04:14:48.792Z,3.26
2022-12-23T04:17:17.146Z,3.31
2022-12-23T04:19:47.651Z,3.04
2022-12-23T04:22:15.784Z,3.15
2022-12-23T04:24:43.463Z,3.09
2022-12-23T04:27:14.431Z,3.13
2022-12-23T04:29:42.881Z,3.14
2022-12-23T04:32:10.441Z,3.13
2022-12-23T04:34:37.692Z,3.09
2022-12-23T04:37:04.910Z,3.07
2022-12-23T04:39:32.393Z,3.01
2022-12-23T04:41:59.614Z,2.99
2022-12-23T04:44:26.794Z,2.96
2022-12-23T04:46:54.306Z,2.99
2022-12-23T04:49:21.570Z,2.97
2022-12-23T04:51:48.787Z,2.96
2022-12-23T04:54:16.414Z,2.91
2022-12-23T04:56:43.629Z,3.00
2022-12-23T04:59:11.045Z,2.95
2022-12-23T05:01:38.852Z,2.70
2022-12-23T05:04:06.124Z,2.74
2022-12-23T05:06:33.399Z,2.60
2022-12-23T05:09:00.945Z,2.61
2022-12-23T05:11:28.213Z,2.67
2022-12-23T05:13:55.362Z,2.77
2022-12-23T05:16:22.934Z,2.79
2022-12-23T05:18:50.715Z,2.70
2022-12-23T05:21:17.911Z,2.69
2022-12-23T05:23:45.407Z,2.65
2022-12-23T05:26:12.658Z,2.67
2022-12-23T05:28:39.872Z,2.67
2022-12-23T05:31:08.484Z,2.49
2022-12-23T05:33:35.997Z,2.63
2022-12-23T05:36:04.395Z,2.56
2022-12-23T05:38:32.091Z,2.63
2022-12-23T05:40:59.264Z,2.62
2022-12-23T05:43:26.492Z,2.67
2022-12-23T05:45:54.094Z,2.66
2022-12-23T05:48:21.642Z,2.57
2022-12-23T05:50:50.893Z,2.63
2022-12-23T05:53:19.120Z,2.63
2022-12-23T05:55:46.711Z,2.66
2022-12-23T05:58:14.265Z,2.68
2022-12-23T06:00:43.206Z,2.65
2022-12-23T06:03:11.976Z,2.70
2022-12-23T06:05:40.373Z,2.70
2022-12-23T06:08:07.577Z,2.65
2022-12-23T06:10:35.133Z,2.42
2022-12-23T06:13:02.346Z,2.46
2022-12-23T06:15:29.485Z,2.47
2022-12-23T06:17:57.027Z,2.53
2022-12-23T06:20:24.259Z,2.35
2022-12-23T06:22:51.431Z,2.18
2022-12-23T06:25:19.001Z,2.11
2022-12-23T06:27:46.406Z,2.02
2022-12-23T06:30:14.537Z,1.85
2022-12-23T06:32:42.167Z,1.99
2022-12-23T06:35:09.721Z,1.98
2022-12-23T06:37:37.012Z,2.09
2022-12-23T06:40:04.988Z,2.13
2022-12-23T06:42:32.227Z,2.24
2022-12-23T06:44:59.470Z,2.28
2022-12-23T06:47:27.014Z,2.34
2022-12-23T06:49:54.918Z,2.39
2022-12-23T06:52:23.159Z,2.42
2022-12-23T06:54:50.741Z,2.46
2022-12-23T06:57:17.885Z,2.57
2022-12-23T06:59:45.075Z,2.53
2022-12-23T07:02:12.798Z,2.60
2022-12-23T07:04:40.077Z,2.58
2022-12-23T07:07:07.244Z,2.67
2022-12-23T07:09:34.792Z,2.63
2022-12-23T07:12:03.836Z,2.63
2022-12-23T07:14:31.072Z,2.65
2022-12-23T07:16:58.582Z,2.76
2022-12-23T07:19:25.711Z,2.62
2022-12-23T07:21:52.809Z,2.88
2022-12-23T07:24:20.335Z,2.95
2022-12-23T07:26:47.446Z,2.91
2022-12-23T07:29:14.541Z,2.39
2022-12-23T07:31:42.216Z,2.49
2022-12-23T07:34:09.745Z,2.52
2022-12-23T07:36:36.941Z,2.37
2022-12-23T07:39:05.876Z,2.57
2022-12-23T07:41:33.028Z,2.67
2022-12-23T07:44:01.060Z,2.58
2022-12-23T07:46:28.760Z,2.64
2022-12-23T07:48:55.889Z,2.57
2022-12-23T07:51:22.966Z,2.69
2022-12-23T07:53:50.867Z,2.75
2022-12-23T07:56:18.763Z,2.97
2022-12-23T07:58:50.180Z,3.00
2022-12-23T08:01:18.252Z,3.10
2022-12-23T08:03:46.502Z,3.27
2022-12-23T08:06:15.834Z,3.59
2022-12-23T08:08:44.871Z,3.76
2022-12-23T08:11:13.933Z,3.96
2022-12-23T08:13:42.762Z,3.83
2022-12-23T08:16:10.551Z,3.82
2022-12-23T08:18:39.835Z,3.89
2022-12-23T08:21:13.058Z,3.58
2022-12-23T08:23:40.815Z,3.12
2022-12-23T08:26:14.949Z,2.99
2022-12-23T08:28:43.109Z,2.92
2022-12-23T08:31:13.703Z,2.83
2022-12-23T08:33:43.299Z,2.55
2022-12-23T08:36:20.652Z,2.73
2022-12-23T08:38:51.495Z,2.74
2022-12-23T08:41:21.070Z,2.61
2022-12-23T08:43:48.394Z,2.48
2022-12-23T08:46:15.638Z,2.76
2022-12-23T08:48:48.833Z,2.81
2022-12-23T08:51:18.606Z,2.89
2022-12-23T08:53:46.856Z,3.17
2022-12-23T08:56:17.675Z,3.11
2022-12-23T08:58:46.444Z,3.08
2022-12-23T09:01:16.340Z,3.02
2022-12-23T09:03:44.482Z,3.24
2022-12-23T09:06:28.861Z,3.25
2022-12-23T09:08:58.383Z,3.37
2022-12-23T09:11:27.195Z,3.42
2022-12-23T09:13:54.849Z,3.62
2022-12-23T09:16:22.466Z,3.48
2022-12-23T09:18:49.998Z,3.38
2022-12-23T09:21:21.752Z,3.40
2022-12-23T09:23:49.544Z,3.57
2022-12-23T09:26:28.830Z,3.67
2022-12-23T09:28:57.064Z,3.75
2022-12-23T09:31:27.977Z,3.88
2022-12-23T09:33:59.955Z,3.76
2022-12-23T09:36:27.084Z,3.98
2022-12-23T09:38:57.908Z,4.12
2022-12-23T09:41:50.789Z,3.89
2022-12-23T09:44:27.067Z,4.08
2022-12-23T09:46:57.398Z,4.15
2022-12-23T09:49:24.571Z,4.03
2022-12-23T09:51:54.178Z,3.64
2022-12-23T09:54:24.669Z,3.54
2022-12-23T09:57:28.350Z,3.78
2022-12-23T10:00:03.161Z,3.77
2022-12-23T10:02:51.747Z,3.79
2022-12-23T10:05:35.485Z,3.85
2022-12-23T10:08:09.090Z,3.92
2022-12-23T10:10:45.226Z,3.73
2022-12-23T10:13:29.747Z,3.61
2022-12-23T10:16:01.536Z,3.76
2022-12-23T10:18:42.906Z,3.80
2022-12-23T10:21:31.600Z,4.02
2022-12-23T10:24:02.577Z,4.28
2022-12-23T10:26:39.656Z,4.44
2022-12-23T10:29:19.360Z,4.49
2022-12-23T10:31:53.220Z,4.41
2022-12-23T10:34:26.147Z,4.40
2022-12-23T10:36:59.699Z,4.32
2022-12-23T10:39:43.989Z,4.16
2022-12-23T10:42:33.402Z,3.97
2022-12-23T10:45:04.200Z,4.20
2022-12-23T10:47:38.194Z,4.45
2022-12-23T10:50:08.089Z,4.51
2022-12-23T10:52:37.852Z,4.19
2022-12-23T10:55:05.519Z,4.40
2022-12-23T10:57:33.024Z,4.68
2022-12-23T11:00:00.649Z,4.71
2022-12-23T11:02:46.905Z,4.77
2022-12-23T11:05:17.924Z,4.79
2022-12-23T11:07:46.663Z,4.86
2022-12-23T11:10:22.537Z,5.04
2022-12-23T11:12:52.222Z,4.60
2022-12-23T11:15:40.410Z,4.51
2022-12-23T11:18:11.849Z,4.68
2022-12-23T11:20:41.012Z,4.86
2022-12-23T11:23:29.236Z,4.50
2022-12-23T11:26:11.254Z,4.65
2022-12-23T11:28:41.085Z,4.83
2022-12-23T11:31:14.493Z,4.59
2022-12-23T11:33:51.240Z,4.65
2022-12-23T11:36:24.959Z,4.53
2022-12-23T11:39:01.459Z,4.75
2022-12-23T11:41:35.414Z,4.96
2022-12-23T11:44:24.672Z,4.94
2022-12-23T11:47:20.933Z,5.18
2022-12-23T11:49:56.404Z,5.35
2022-12-23T11:52:26.144Z,5.48
2022-12-23T11:54:56.004Z,5.44
2022-12-23T11:57:31.621Z,5.06
2022-12-23T12:00:02.088Z,5.18
2022-12-23T12:02:34.310Z,5.37
2022-12-23T12:05:04.826Z,5.35
2022-12-23T12:07:32.269Z,5.44
2022-12-23T12:10:00.424Z,5.40
2022-12-23T12:12:29.132Z,5.34
2022-12-23T12:14:58.226Z,5.48
2022-12-23T12:17:31.155Z,5.51
2022-12-23T12:20:12.478Z,5.50
2022-12-23T12:22:58.054Z,5.50
2022-12-23T12:25:49.330Z,5.53
2022-12-23T12:28:25.310Z,5.65
2022-12-23T12:31:23.167Z,5.72
2022-12-23T12:34:25.544Z,5.43
2022-12-23T12:36:59.565Z,5.27
2022-12-23T12:39:34.290Z,5.38
2022-12-23T12:42:10.763Z,5.40
2022-12-23T12:45:09.690Z,5.54
2022-12-23T12:48:02.351Z,5.69
2022-12-23T12:50:34.232Z,5.64
2022-12-23T12:53:15.023Z,5.86
2022-12-23T12:55:46.285Z,5.80
2022-12-23T12:58:21.802Z,5.70
2022-12-23T13:01:18.089Z,5.67
2022-12-23T13:04:06.053Z,5.65
2022-12-23T13:06:35.636Z,5.73
2022-12-23T13:09:32.132Z,6.00
2022-12-23T13:12:05.788Z,5.89
2022-12-23T13:14:44.812Z,5.82
2022-12-23T13:17:33.587Z,5.71
2022-12-23T13:20:27.603Z,5.70
2022-12-23T13:23:20.842Z,5.81
2022-12-23T13:25:51.362Z,6.01
2022-12-23T13:28:25.743Z,5.86
2022-12-23T13:31:24.089Z,5.83
2022-12-23T13:34:05.493Z,5.86
2022-12-23T13:37:12.439Z,5.87
2022-12-23T13:39:49.619Z,5.79
2022-12-23T13:42:26.835Z,5.89
2022-12-23T13:44:54.424Z,5.91
2022-12-23T13:47:36.051Z,6.00
2022-12-23T13:50:37.079Z,5.76
2022-12-23T13:53:16.388Z,5.82
2022-12-23T13:55:52.866Z,5.74
2022-12-23T13:58:22.168Z,5.99
2022-12-23T14:01:07.951Z,5.83
2022-12-23T14:03:37.508Z,5.98
2022-12-23T14:06:23.467Z,5.87
2022-12-23T14:08:52.072Z,5.68
2022-12-23T14:11:23.653Z,5.80
2022-12-23T14:13:50.973Z,5.73
2022-12-23T14:16:36.116Z,5.76
2022-12-23T14:19:07.234Z,5.67
2022-12-23T14:21:49.531Z,5.66
2022-12-23T14:24:23.022Z,5.66
2022-12-23T14:27:08.831Z,5.60
2022-12-23T14:29:50.388Z,5.66
2022-12-23T14:32:24.306Z,5.61
2022-12-23T14:35:15.522Z,5.55
2022-12-23T14:37:43.137Z,5.50
2022-12-23T14:40:38.390Z,5.49
2022-12-23T14:43:32.013Z,5.59
2022-12-23T14:46:02.097Z,5.60
2022-12-23T14:48:44.472Z,5.57
2022-12-23T14:51:14.697Z,5.54
2022-12-23T14:53:54.164Z,5.48
2022-12-23T14:56:28.538Z,5.49
2022-12-23T14:59:10.958Z,5.71
2022-12-23T15:02:03.503Z,5.61
2022-12-23T15:04:49.810Z,5.46
2022-12-23T15:07:36.034Z,5.61
2022-12-23T15:10:06.344Z,5.46
2022-12-23T15:12:39.257Z,5.45
2022-12-23T15:15:07.725Z,5.39
2022-12-23T15:17:36.650Z,5.42
2022-12-23T15:20:23.194Z,5.43
2022-12-23T15:22:52.175Z,5.36
2022-12-23T15:25:23.011Z,5.38
2022-12-23T15:27:55.922Z,5.45
2022-12-23T15:30:30.734Z,5.44
2022-12-23T15:33:00.757Z,5.30
2022-12-23T15:35:31.774Z,5.48
2022-12-23T15:38:01.752Z,5.36
2022-12-23T15:40:33.701Z,5.37
2022-12-23T15:43:01.707Z,5.31
2022-12-23T15:45:34.578Z,5.32
2022-12-23T15:48:03.865Z,5.26
2022-12-23T15:50:31.318Z,5.17
2022-12-23T15:53:05.239Z,5.11
2022-12-23T15:55:33.519Z,5.12
2022-12-23T15:58:01.324Z,4.98
2022-12-23T16:00:38.357Z,4.95
2022-12-23T16:03:11.868Z,4.93
2022-12-23T16:05:42.135Z,4.84
2022-12-23T16:08:23.183Z,4.82
2022-12-23T16:11:12.562Z,4.88
2022-12-23T16:13:46.743Z,4.96
2022-12-23T16:16:28.965Z,5.00
2022-12-23T16:18:56.842Z,5.07
2022-12-23T16:21:28.678Z,5.05
2022-12-23T16:23:56.119Z,5.05
2022-12-23T16:26:23.630Z,5.07
2022-12-23T16:28:53.041Z,5.09
2022-12-23T16:31:21.599Z,5.01
2022-12-23T16:33:54.024Z,5.00
2022-12-23T16:36:27.143Z,5.00
2022-12-23T16:39:02.670Z,5.00
2022-12-23T16:41:29.794Z,5.04
2022-12-23T16:44:00.969Z,5.04
2022-12-23T16:46:28.738Z,5.04
2022-12-23T16:48:58.613Z,5.11
2022-12-23T16:51:27.479Z,5.15
2022-12-23T16:53:56.564Z,5.19
2022-12-23T16:56:28.329Z,5.19
2022-12-23T16:58:55.782Z,5.04
2022-12-23T17:01:31.848Z,5.06
2022-12-23T17:03:59.722Z,5.02
2022-12-23T17:06:27.134Z,4.99
2022-12-23T17:08:54.499Z,4.91
2022-12-23T17:11:26.075Z,4.70
2022-12-23T17:13:56.706Z,4.61
2022-12-23T17:16:29.227Z,4.61
2022-12-23T17:18:56.456Z,4.54
2022-12-23T17:21:25.516Z,4.42
2022-12-23T17:23:56.720Z,4.37
2022-12-23T17:26:24.004Z,4.39
2022-12-23T17:28:51.080Z,4.37
2022-12-23T17:31:26.595Z,4.32
2022-12-23T17:33:54.582Z,4.30
2022-12-23T17:36:22.480Z,4.28
2022-12-23T17:38:49.688Z,4.33
2022-12-23T17:41:25.292Z,4.41
2022-12-23T17:43:52.804Z,4.39
2022-12-23T17:46:20.127Z,4.23
2022-12-23T17:48:47.921Z,4.20
2022-12-23T17:51:18.422Z,4.30
2022-12-23T17:53:49.232Z,4.28
2022-12-23T17:56:24.470Z,4.21
2022-12-23T17:58:51.773Z,4.04
2022-12-23T18:01:24.532Z,3.98
2022-12-23T18:03:52.501Z,3.88
2022-12-23T18:06:21.589Z,3.81
2022-12-23T18:08:50.183Z,3.85
2022-12-23T18:11:23.825Z,3.99
2022-12-23T18:13:52.395Z,4.28
2022-12-23T18:16:20.046Z,4.50
2022-12-23T18:18:47.452Z,4.41
2022-12-23T18:21:20.605Z,4.26
2022-12-23T18:23:48.139Z,4.23
2022-12-23T18:26:15.516Z,4.35
2022-12-23T18:28:43.572Z,4.42
2022-12-23T18:31:19.794Z,4.45
2022-12-23T18:33:47.524Z,4.42
2022-12-23T18:36:27.849Z,4.29
2022-12-23T18:38:55.095Z,4.03
2022-12-23T18:41:23.573Z,4.04
2022-12-23T18:43:51.270Z,4.01
2022-12-23T18:46:20.208Z,3.92
2022-12-23T18:48:48.376Z,3.99
2022-12-23T18:51:16.907Z,4.07
2022-12-23T18:53:44.116Z,4.07
2022-12-23T18:56:16.016Z,4.05
2022-12-23T18:58:43.249Z,3.99
2022-12-23T19:01:12.751Z,4.02
2022-12-23T19:03:40.757Z,4.16
2022-12-23T19:06:09.799Z,4.24
2022-12-23T19:08:37.591Z,4.08
2022-12-23T19:11:13.105Z,4.04
2022-12-23T19:13:40.644Z,4.15
2022-12-23T19:16:08.865Z,4.25
2022-12-23T19:18:37.546Z,4.37
2022-12-23T19:21:05.058Z,4.34
2022-12-23T19:23:32.815Z,4.30
2022-12-23T19:25:59.934Z,4.34
2022-12-23T19:28:27.156Z,4.31
2022-12-23T19:30:54.653Z,4.31
2022-12-23T19:33:21.846Z,4.27
2022-12-23T19:35:49.024Z,4.24
2022-12-23T19:38:16.462Z,4.13
2022-12-23T19:40:43.599Z,4.08
2022-12-23T19:43:10.787Z,4.10
2022-12-23T19:45:38.273Z,4.05
2022-12-23T19:48:05.656Z,4.05
2022-12-23T19:50:32.809Z,3.96
2022-12-23T19:53:00.327Z,4.01
2022-12-23T19:55:27.495Z,4.03
2022-12-23T19:57:54.591Z,4.07
2022-12-23T20:00:22.089Z,4.19
2022-12-23T20:02:55.053Z,4.28
2022-12-23T20:05:25.635Z,4.32
2022-12-23T20:07:53.110Z,4.36
2022-12-23T20:10:20.252Z,4.42
2022-12-23T20:12:47.398Z,4.41
2022-12-23T20:15:14.880Z,4.47
2022-12-23T20:17:42.086Z,4.47
2022-12-23T20:20:09.694Z,4.42
2022-12-23T20:22:37.183Z,4.61
2022-12-23T20:25:04.703Z,4.57
2022-12-23T20:27:35.392Z,4.53
2022-12-23T20:30:02.890Z,4.61
2022-12-23T20:32:30.082Z,4.64
2022-12-23T20:34:57.261Z,4.66
2022-12-23T20:37:24.794Z,4.49
2022-12-23T20:39:52.636Z,4.55
2022-12-23T20:42:19.786Z,4.66
2022-12-23T20:44:47.290Z,4.69
2022-12-23T20:47:14.483Z,4.68
2022-12-23T20:49:41.681Z,4.61
2022-12-23T20:52:09.158Z,4.68
2022-12-23T20:54:36.306Z,4.48
2022-12-23T20:57:06.621Z,4.31
2022-12-23T20:59:34.188Z,4.27
2022-12-23T21:02:01.354Z,4.26
2022-12-23T21:04:28.826Z,4.25
2022-12-23T21:06:56.296Z,4.20
2022-12-23T21:09:23.381Z,4.12
2022-12-23T21:11:54.973Z,4.12
2022-12-23T21:14:22.399Z,4.05
2022-12-23T21:16:49.643Z,3.92
2022-12-23T21:19:22.187Z,3.78
2022-12-23T21:21:50.505Z,3.89
2022-12-23T21:24:18.427Z,3.85
2022-12-23T21:26:50.282Z,3.95
2022-12-23T21:29:20.050Z,4.09
2022-12-23T21:31:47.248Z,4.10
2022-12-23T21:34:14.507Z,4.04
2022-12-23T21:36:43.312Z,4.16
2022-12-23T21:39:15.346Z,4.11
2022-12-23T21:41:43.216Z,4.14
2022-12-23T21:44:13.812Z,4.15
2022-12-23T21:46:40.979Z,4.20
2022-12-23T21:49:09.195Z,4.12
2022-12-23T21:51:40.503Z,4.39
2022-12-23T21:54:11.787Z,4.36
2022-12-23T21:56:42.394Z,4.49
2022-12-23T21:59:14.606Z,4.32
2022-12-23T22:01:42.505Z,4.19
2022-12-23T22:04:10.051Z,4.29
2022-12-23T22:06:39.217Z,4.25
2022-12-23T22:09:07.182Z,4.34
2022-12-23T22:11:37.601Z,4.44
2022-12-23T22:14:07.909Z,4.41
2022-12-23T22:16:35.838Z,4.50
2022-12-23T22:19:04.196Z,4.68
2022-12-23T22:21:32.396Z,4.58
2022-12-23T22:23:59.917Z,4.60
2022-12-23T22:26:30.606Z,4.73
2022-12-23T22:28:59.455Z,4.87
2022-12-23T22:31:33.247Z,4.89
2022-12-23T22:34:00.539Z,4.97
2022-12-23T22:36:28.132Z,5.02
2022-12-23T22:38:57.381Z,5.11
2022-12-23T22:41:25.455Z,5.39
2022-12-23T22:43:52.958Z,5.34
2022-12-23T22:46:20.350Z,5.36
2022-12-23T22:48:47.563Z,5.39
2022-12-23T22:51:21.814Z,5.40
2022-12-23T22:53:49.071Z,5.38
2022-12-23T22:56:18.014Z,5.33
2022-12-23T22:58:45.250Z,5.17
2022-12-23T23:01:24.949Z,5.27
2022-12-23T23:03:59.712Z,5.29
2022-12-23T23:06:38.131Z,5.30
2022-12-23T23:09:07.536Z,5.31
2022-12-23T23:11:34.700Z,5.34
2022-12-23T23:14:01.932Z,5.35
2022-12-23T23:16:29.521Z,5.18
2022-12-23T23:18:57.764Z,5.39
2022-12-23T23:21:24.932Z,5.48
2022-12-23T23:23:52.519Z,5.38
2022-12-23T23:26:20.604Z,5.44
2022-12-23T23:28:48.229Z,5.53
2022-12-23T23:34:02.846Z,5.63
2022-12-23T23:36:30.353Z,5.55
2022-12-23T23:38:57.590Z,5.67
2022-12-23T23:41:24.831Z,5.81
2022-12-23T23:43:52.456Z,5.91
2022-12-23T23:46:19.972Z,5.99
2022-12-23T23:48:47.587Z,5.99
2022-12-23T23:51:15.133Z,5.92
2022-12-23T23:53:42.318Z,5.76
2022-12-23T23:56:09.576Z,5.81
2022-12-23T23:58:37.670Z,5.84
